Airfield :
LOGIN :

Register | Disclaimer

   EN    FR    IT 

 










Legend :    VFR   Marginal VFR   IFR   Intensive IFR   Very Intensive IFR
Visi :
Ceiling :
>= 8 km
>= 3000ft
5 to 8 km
1000 to 3000 ft
1500m to 5 km
500 to 1000 ft
800 to 1500m
200 to 500 ft
< 800m
< 200 ft
Symbols :   Thunderstorms  Fog  Heavy snow  Heavy precipitations  Wind > 20 kt
SIGMETs :     Misc.  Thunderstorms  Icing  Turbulence  Mountain Waves  Volcanic Ashes







- Airport Elevation : 505 ft
- IATA code : SXB
- Download approach charts


LFST - Strasbourg

CURRENT METAR :
  • 152030Z AUTO 20002KT 7000 NSC 02/M00 Q1029 TEMPO 4000 BR

EXPIRED METARs :
  • 152000Z AUTO 22003KT 6000 NSC 02/00 Q1030 TEMPO 4000 BR
  • 151930Z AUTO 22004KT 6000 NSC 02/00 Q1030 TEMPO 4000 BR
  • 151900Z AUTO 24004KT 6000 NSC 04/01 Q1030 NOSIG
  • 151830Z AUTO 24004KT 8000 NSC 04/01 Q1030 NOSIG
  • 151800Z AUTO 26002KT 9000 NSC 06/02 Q1030 NOSIG

TAF TAF LFST
Valid from the 15 at 18:00 until the 16 at 18:00 UTC


151700Z 1518/1618 VRB03KT CAVOK
TEMPO 1521/1610 4000 BR
PROB40
TEMPO 1603/1608 1500 BCFG
PROB40
TEMPO 1605/1608 0300 FZFG VV///
No reported NOTAMs for that airfield.



MET'MAP, your aeronautical weather chart ! - Copyright ORBIFLY December 2007 - Disclaimer

ORBIFLY MET'MAP TEAM :

Programming & Development : Alexandra Zaïnal
Concept & Development : Baudouin d'Aumeries
Co-Development & Prog : Marc-Olivier Méhu
Technical & hardware support : Manuel Goepfert

Contact : metmap@orbifly.com




SOURCES & CREDITS :

   NOAA